Time;durP1;ratioP1;P1;durP2;ratioP2;P2;SDS_P1;SDS_P2;PMS_P1;PMS_P2;Temp;Humidity;BMP_temperature;BMP_pressure;BME280_temperature;BME280_humidity;BME280_pressure;Samples;Min_cycle;Max_cycle;Signal;HPM_P1;HPM_P2
2023/04/17 00:00:20;;;;;;;14.73;13.20;;;;;;;7.59;100.00;101769.28;4987589;28;20197;-85
2023/04/17 00:02:51;;;;;;;17.75;13.85;;;;;;;7.47;100.00;101769.72;4986872;28;20214;-83
2023/04/17 00:05:25;;;;;;;18.20;13.85;;;;;;;7.70;100.00;101765.44;4968475;29;20223;-83
2023/04/17 00:07:55;;;;;;;16.45;13.32;;;;;;;7.86;100.00;101768.22;4984515;28;20194;-83
2023/04/17 00:10:27;;;;;;;14.48;12.85;;;;;;;7.61;100.00;101766.41;4988931;28;20169;-82
2023/04/17 00:13:00;;;;;;;16.52;13.13;;;;;;;7.57;100.00;101771.28;4986195;28;20204;-84
2023/04/17 00:15:30;;;;;;;13.32;11.93;;;;;;;7.31;100.00;101765.94;4991073;28;20200;-82
2023/04/17 00:17:59;;;;;;;14.52;13.05;;;;;;;7.32;100.00;101766.78;4987336;28;20633;-84
2023/04/17 00:20:29;;;;;;;16.05;13.32;;;;;;;7.31;100.00;101771.31;4983838;28;20238;-83
2023/04/17 00:23:01;;;;;;;16.05;13.60;;;;;;;7.24;100.00;101770.28;4984282;28;20197;-82
2023/04/17 00:25:35;;;;;;;18.45;15.07;;;;;;;7.24;100.00;101772.97;4997313;28;20673;-81
2023/04/17 00:28:06;;;;;;;17.73;14.48;;;;;;;7.11;100.00;101760.94;4996190;28;20211;-84
2023/04/17 00:30:41;;;;;;;17.95;14.48;;;;;;;7.17;100.00;101773.75;4984244;28;20282;-83
2023/04/17 00:33:11;;;;;;;20.30;15.63;;;;;;;7.12;100.00;101770.69;4989528;28;20192;-84
2023/04/17 00:35:40;;;;;;;21.02;13.73;;;;;;;7.25;100.00;101771.97;5004449;28;20664;-83
2023/04/17 00:38:12;;;;;;;16.73;14.18;;;;;;;7.13;100.00;101767.00;4991026;28;20230;-82
2023/04/17 00:40:45;;;;;;;18.30;15.75;;;;;;;7.19;100.00;101764.53;4997682;28;20214;-82
2023/04/17 00:43:16;;;;;;;14.82;12.95;;;;;;;7.06;100.00;101769.50;4997697;28;20227;-81
2023/04/17 00:45:48;;;;;;;18.48;14.52;;;;;;;7.11;100.00;101769.88;4991185;28;20196;-82
2023/04/17 00:48:22;;;;;;;19.60;14.35;;;;;;;6.99;100.00;101774.66;4988588;28;20187;-86
2023/04/17 00:50:54;;;;;;;22.50;15.73;;;;;;;6.93;100.00;101771.75;4989231;28;20252;-81
2023/04/17 00:53:30;;;;;;;20.10;14.40;;;;;;;6.90;100.00;101775.59;4995306;28;20191;-80
2023/04/17 00:56:03;;;;;;;17.75;13.85;;;;;;;6.98;100.00;101769.44;4994129;28;20214;-82
2023/04/17 00:58:38;;;;;;;20.27;13.23;;;;;;;6.90;100.00;101775.59;4995172;28;20207;-84
2023/04/17 01:01:08;;;;;;;16.33;13.27;;;;;;;6.85;100.00;101777.06;4981098;28;20223;-83
2023/04/17 01:03:39;;;;;;;25.00;14.75;;;;;;;6.86;100.00;101776.06;4987883;28;20299;-86
2023/04/17 01:06:08;;;;;;;19.83;15.75;;;;;;;6.97;100.00;101782.03;4985421;28;20230;-84
2023/04/17 01:08:41;;;;;;;16.05;14.18;;;;;;;7.08;100.00;101774.69;4985269;28;20199;-85
2023/04/17 01:11:11;;;;;;;20.48;16.45;;;;;;;6.95;100.00;101775.13;4999729;28;20445;-85
2023/04/17 01:13:49;;;;;;;19.38;14.52;;;;;;;6.87;100.00;101777.78;4985308;28;20204;-84
2023/04/17 01:16:19;;;;;;;17.92;14.20;;;;;;;6.91;100.00;101771.06;4973225;28;20202;-82
2023/04/17 01:18:49;;;;;;;16.75;13.52;;;;;;;7.12;100.00;101760.78;4991961;28;20215;-84
2023/04/17 01:21:19;;;;;;;20.05;14.63;;;;;;;7.15;100.00;101765.00;4981858;28;20295;-86
2023/04/17 01:23:51;;;;;;;15.88;12.65;;;;;;;6.95;100.00;101772.44;4966102;29;20207;-84
2023/04/17 01:26:27;;;;;;;20.17;15.02;;;;;;;6.87;100.00;101770.50;4990350;28;20199;-84
2023/04/17 01:28:58;;;;;;;17.52;14.23;;;;;;;6.82;100.00;101774.72;4983085;28;20707;-83
2023/04/17 01:31:28;;;;;;;20.60;14.45;;;;;;;6.88;100.00;101765.97;4990249;28;20248;-81
2023/04/17 01:34:00;;;;;;;23.23;14.90;;;;;;;6.76;100.00;101775.31;4985750;28;20203;-84
2023/04/17 01:36:30;;;;;;;19.30;13.70;;;;;;;6.66;100.00;101777.25;4991500;28;20313;-82
2023/04/17 01:38:59;;;;;;;22.20;13.63;;;;;;;6.64;100.00;101773.88;4990427;28;20292;-82
2023/04/17 01:41:30;;;;;;;21.05;14.43;;;;;;;6.74;100.00;101780.00;4988070;28;20216;-83
2023/04/17 01:44:00;;;;;;;17.35;13.45;;;;;;;7.71;100.00;101778.75;4991129;28;20207;-85
2023/04/17 01:46:30;;;;;;;26.63;14.48;;;;;;;7.27;100.00;101778.03;4991762;28;20173;-84
2023/04/17 01:48:59;;;;;;;16.27;13.02;;;;;;;6.87;100.00;101780.47;4996126;28;20180;-82
2023/04/17 01:51:30;;;;;;;22.50;15.35;;;;;;;6.67;100.00;101781.63;5003015;28;20270;-81
2023/04/17 01:53:59;;;;;;;20.55;14.93;;;;;;;6.50;100.00;101781.47;4993950;28;20198;-84
2023/04/17 01:56:30;;;;;;;16.95;13.38;;;;;;;6.44;100.00;101774.03;4988460;28;20190;-83
2023/04/17 01:58:59;;;;;;;25.80;15.27;;;;;;;6.40;100.00;101778.03;4981254;28;20250;-83
2023/04/17 02:01:29;;;;;;;18.52;14.20;;;;;;;6.32;100.00;101783.34;4982787;28;20576;-85
2023/04/17 02:03:58;;;;;;;18.40;13.38;;;;;;;6.48;100.00;101790.72;4989623;28;20676;-84
2023/04/17 02:06:28;;;;;;;18.38;14.10;;;;;;;6.35;100.00;101784.84;5003994;28;20215;-85
2023/04/17 02:08:57;;;;;;;24.75;15.57;;;;;;;6.39;100.00;101789.78;5005810;28;20242;-82
2023/04/17 02:11:27;;;;;;;21.48;15.20;;;;;;;6.35;100.00;101787.53;4986671;28;20241;-84
2023/04/17 02:13:57;;;;;;;25.38;16.35;;;;;;;6.24;100.00;101795.84;4986741;28;20214;-84
2023/04/17 02:16:28;;;;;;;23.58;15.57;;;;;;;6.20;100.00;101789.06;4988289;28;20209;-82
2023/04/17 02:18:58;;;;;;;17.95;14.60;;;;;;;6.20;100.00;101791.75;4989122;28;20722;-84
2023/04/17 02:21:27;;;;;;;24.92;14.55;;;;;;;6.15;100.00;101797.59;4994984;28;20216;-82
2023/04/17 02:23:57;;;;;;;16.80;12.73;;;;;;;6.10;100.00;101794.50;4996407;28;20261;-83
2023/04/17 02:26:29;;;;;;;23.45;16.20;;;;;;;6.21;100.00;101798.81;5015353;28;20160;-81
2023/04/17 02:29:00;;;;;;;23.98;15.57;;;;;;;6.10;100.00;101799.88;4990985;28;20710;-83
2023/04/17 02:31:29;;;;;;;18.80;14.63;;;;;;;6.18;100.00;101797.31;4984358;28;20239;-81
2023/04/17 02:33:59;;;;;;;18.70;14.40;;;;;;;6.19;100.00;101796.31;4987817;28;20645;-81
2023/04/17 02:36:28;;;;;;;21.02;14.30;;;;;;;6.23;100.00;101799.53;5001927;28;20219;-81
2023/04/17 02:38:57;;;;;;;20.45;14.55;;;;;;;6.20;100.00;101799.81;4994579;28;20216;-81
2023/04/17 02:41:27;;;;;;;17.08;14.63;;;;;;;6.09;100.00;101792.84;4992602;28;20233;-82
2023/04/17 02:44:00;;;;;;;21.80;14.65;;;;;;;6.26;100.00;101799.22;4997158;28;20212;-82
2023/04/17 02:46:29;;;;;;;24.38;15.10;;;;;;;6.33;100.00;101811.91;5000147;28;20218;-82
2023/04/17 02:48:59;;;;;;;20.90;14.23;;;;;;;6.14;100.00;101803.13;5000130;28;20268;-81
2023/04/17 02:51:28;;;;;;;17.40;13.00;;;;;;;6.13;100.00;101799.59;4984166;28;20229;-82
2023/04/17 02:53:58;;;;;;;22.00;13.45;;;;;;;6.27;100.00;101793.69;4980587;28;20173;-80
2023/04/17 02:56:27;;;;;;;23.35;14.15;;;;;;;6.23;100.00;101795.00;4995398;28;20183;-82
2023/04/17 02:59:00;;;;;;;15.63;13.40;;;;;;;6.16;100.00;101799.28;4999716;28;20226;-80
2023/04/17 03:01:29;;;;;;;24.25;16.25;;;;;;;5.99;100.00;101797.44;4993283;28;20211;-81
2023/04/17 03:03:59;;;;;;;21.52;16.35;;;;;;;5.94;100.00;101802.41;4997628;28;20188;-82
2023/04/17 03:06:29;;;;;;;18.63;14.60;;;;;;;5.96;100.00;101816.50;5000088;28;20186;-84
2023/04/17 03:09:03;;;;;;;22.55;13.43;;;;;;;6.02;100.00;101813.25;5003799;28;20195;-86
2023/04/17 03:11:33;;;;;;;20.02;15.35;;;;;;;5.91;100.00;101810.75;5000120;28;20283;-86
2023/04/17 03:14:04;;;;;;;22.50;16.33;;;;;;;5.92;100.00;101807.06;5000054;28;20187;-85
2023/04/17 03:16:33;;;;;;;24.95;16.08;;;;;;;5.81;100.00;101810.75;5000198;28;20194;-85
2023/04/17 03:19:04;;;;;;;22.90;15.20;;;;;;;5.96;100.00;101813.81;5000096;28;20230;-85
2023/04/17 03:21:34;;;;;;;16.45;14.13;;;;;;;6.01;100.00;101819.59;5000087;28;20206;-85
2023/04/17 03:24:04;;;;;;;20.45;14.48;;;;;;;5.88;100.00;101821.81;4999612;28;20222;-85
2023/04/17 03:26:33;;;;;;;20.30;15.68;;;;;;;5.85;100.00;101822.94;4995544;28;20188;-85
2023/04/17 03:29:09;;;;;;;21.77;15.60;;;;;;;5.79;100.00;101818.16;4991076;28;20197;-85
2023/04/17 03:31:39;;;;;;;23.80;16.05;;;;;;;5.91;100.00;101827.72;4998967;28;20229;-83
2023/04/17 03:34:09;;;;;;;24.50;16.23;;;;;;;5.81;100.00;101828.75;4978502;28;20212;-83
2023/04/17 03:36:39;;;;;;;23.88;18.27;;;;;;;6.05;100.00;101832.59;4998036;28;20201;-85
2023/04/17 03:39:09;;;;;;;25.50;16.30;;;;;;;5.88;100.00;101832.53;4997128;28;20222;-86
2023/04/17 03:41:39;;;;;;;23.02;15.77;;;;;;;5.77;100.00;101832.69;5005046;28;20241;-84
2023/04/17 03:44:11;;;;;;;22.05;15.68;;;;;;;5.81;100.00;101831.44;5017720;28;20213;-85
2023/04/17 03:46:41;;;;;;;23.10;14.88;;;;;;;5.68;100.00;101832.59;5003222;28;20202;-85
2023/04/17 03:49:10;;;;;;;25.33;16.92;;;;;;;5.60;100.00;101840.56;4998894;28;20203;-85
2023/04/17 03:51:42;;;;;;;25.50;18.13;;;;;;;5.56;100.00;101838.31;4999829;28;20210;-85
2023/04/17 03:54:18;;;;;;;21.52;16.75;;;;;;;5.58;100.00;101837.16;4995174;28;20198;-85
2023/04/17 03:56:49;;;;;;;29.67;16.25;;;;;;;5.52;100.00;101843.09;4996942;28;20199;-86
2023/04/17 03:59:21;;;;;;;27.77;17.58;;;;;;;5.46;100.00;101838.34;4978679;28;20226;-84
2023/04/17 04:01:53;;;;;;;29.73;19.42;;;;;;;5.76;100.00;101841.78;5012664;23;20235;-78
2023/04/17 04:04:24;;;;;;;21.73;17.30;;;;;;;5.59;100.00;101841.53;4975372;28;20280;-78
2023/04/17 04:07:00;;;;;;;23.67;18.50;;;;;;;5.56;100.00;101849.06;4975088;28;20649;-78
2023/04/17 04:09:30;;;;;;;21.98;16.02;;;;;;;5.71;100.00;101850.28;4974700;28;20212;-77
2023/04/17 04:12:00;;;;;;;24.58;17.83;;;;;;;5.65;100.00;101854.41;4980517;28;20230;-78
2023/04/17 04:14:33;;;;;;;29.13;18.65;;;;;;;5.49;100.00;101858.69;4954099;28;20213;-78
2023/04/17 04:17:04;;;;;;;22.92;17.55;;;;;;;5.64;100.00;101858.06;4943061;28;20229;-78
2023/04/17 04:19:34;;;;;;;27.13;16.80;;;;;;;5.49;100.00;101864.88;4966160;28;20222;-78
2023/04/17 04:22:03;;;;;;;21.55;17.55;;;;;;;5.51;100.00;101865.59;4963124;28;20273;-77
2023/04/17 04:24:41;;;;;;;36.42;20.40;;;;;;;5.67;100.00;101863.13;4964482;28;20210;-78
2023/04/17 04:27:16;;;;;;;22.65;16.83;;;;;;;5.66;100.00;101866.81;4971355;28;20206;-76
2023/04/17 04:29:48;;;;;;;28.42;18.40;;;;;;;5.59;100.00;101859.50;4975000;28;20221;-77
2023/04/17 04:32:20;;;;;;;26.33;18.60;;;;;;;5.53;100.00;101866.28;4987553;28;20226;-77
2023/04/17 04:34:51;;;;;;;26.55;18.48;;;;;;;5.55;100.00;101868.84;4985532;28;20194;-77
2023/04/17 04:37:28;;;;;;;30.08;20.30;;;;;;;5.59;100.00;101871.09;4988764;28;20225;-77
2023/04/17 04:40:09;;;;;;;32.25;20.13;;;;;;;5.58;100.00;101864.00;4992767;28;20234;-77
2023/04/17 04:42:48;;;;;;;24.95;17.80;;;;;;;5.90;100.00;101874.41;4982596;28;20209;-77
2023/04/17 04:45:23;;;;;;;24.48;18.88;;;;;;;5.75;100.00;101867.78;4981781;28;20185;-77
2023/04/17 04:47:53;;;;;;;36.10;21.00;;;;;;;5.86;100.00;101866.72;5015936;28;20177;-77
2023/04/17 04:50:22;;;;;;;29.70;20.00;;;;;;;5.70;100.00;101867.38;4983113;28;20471;-76
2023/04/17 04:52:51;;;;;;;29.95;19.65;;;;;;;5.77;100.00;101867.63;4997887;28;20206;-77
2023/04/17 04:55:41;;;;;;;28.23;19.13;;;;;;;5.73;100.00;101875.13;4968983;28;20206;-78
2023/04/17 04:58:11;;;;;;;28.73;20.80;;;;;;;5.80;100.00;101872.72;4980951;28;20216;-78
2023/04/17 05:00:42;;;;;;;27.10;19.50;;;;;;;5.99;100.00;101880.72;4987409;28;20258;-79
2023/04/17 05:03:16;;;;;;;26.38;20.90;;;;;;;6.03;100.00;101884.78;4973816;28;20693;-78
2023/04/17 05:05:47;;;;;;;25.52;16.17;;;;;;;5.91;100.00;101881.44;4958100;28;20208;-78
2023/04/17 05:08:16;;;;;;;27.55;18.48;;;;;;;5.96;100.00;101881.84;4981202;28;20198;-77
2023/04/17 05:10:54;;;;;;;24.67;19.75;;;;;;;5.87;100.00;101884.56;4981632;28;20198;-77
2023/04/17 05:13:24;;;;;;;28.60;20.70;;;;;;;5.86;100.00;101888.22;4985434;28;20190;-77
2023/04/17 05:15:54;;;;;;;28.45;20.27;;;;;;;5.83;100.00;101889.38;4966416;28;20201;-78
2023/04/17 05:18:27;;;;;;;29.65;20.75;;;;;;;5.90;100.00;101895.03;4974733;28;20209;-77
2023/04/17 05:20:56;;;;;;;32.05;19.60;;;;;;;5.98;100.00;101896.00;4975675;28;20298;-77
2023/04/17 05:23:27;;;;;;;26.77;20.13;;;;;;;6.09;100.00;101908.41;4964617;28;20279;-77
2023/04/17 05:25:57;;;;;;;28.98;19.85;;;;;;;6.04;100.00;101908.84;4976022;28;20286;-78
2023/04/17 05:28:28;;;;;;;35.47;19.40;;;;;;;6.08;100.00;101909.38;4963011;28;20531;-78
2023/04/17 05:31:00;;;;;;;32.90;22.60;;;;;;;5.93;100.00;101910.84;4962086;28;20202;-77
2023/04/17 05:33:37;;;;;;;33.42;21.73;;;;;;;5.80;100.00;101919.22;4960854;28;20237;-79
2023/04/17 05:36:07;;;;;;;32.25;22.67;;;;;;;5.79;100.00;101914.84;4964169;28;20190;-78
2023/04/17 05:38:39;;;;;;;41.30;24.85;;;;;;;5.74;100.00;101921.63;4948825;29;20186;-78
2023/04/17 05:41:12;;;;;;;34.53;24.38;;;;;;;5.81;100.00;101922.75;4971050;28;20715;-79
2023/04/17 05:43:46;;;;;;;31.08;25.15;;;;;;;5.75;100.00;101926.88;4966592;28;20218;-77
2023/04/17 05:46:26;;;;;;;39.53;25.20;;;;;;;5.85;100.00;101924.16;4985936;28;20200;-77
2023/04/17 05:48:57;;;;;;;34.65;23.10;;;;;;;5.76;100.00;101927.72;4982433;28;20599;-77
2023/04/17 05:51:35;;;;;;;40.60;25.67;;;;;;;5.67;100.00;101935.63;4966602;28;20238;-79
2023/04/17 05:54:06;;;;;;;38.67;28.90;;;;;;;5.74;100.00;101935.06;4983727;28;20208;-78
2023/04/17 05:56:42;;;;;;;35.15;25.45;;;;;;;5.66;100.00;101928.56;4983980;28;20187;-78
2023/04/17 05:59:14;;;;;;;45.60;28.15;;;;;;;5.73;100.00;101933.38;4974481;28;20295;-78
2023/04/17 06:01:49;;;;;;;46.40;27.80;;;;;;;5.77;100.00;101932.06;4958709;29;20230;-78
2023/04/17 06:04:22;;;;;;;39.97;24.85;;;;;;;5.74;100.00;101933.22;4960070;28;20251;-79
2023/04/17 06:06:55;;;;;;;40.83;28.10;;;;;;;5.72;100.00;101929.84;4984565;28;20241;-78
2023/04/17 06:09:29;;;;;;;44.22;25.45;;;;;;;5.77;100.00;101926.72;4987045;28;20194;-79
2023/04/17 06:12:06;;;;;;;53.47;45.03;;;;;;;5.90;100.00;101936.19;4953574;28;20242;-79
2023/04/17 06:14:44;;;;;;;45.40;32.42;;;;;;;5.93;100.00;101935.03;4983775;28;20201;-79
2023/04/17 06:17:34;;;;;;;41.50;32.05;;;;;;;6.01;100.00;101951.25;4987052;28;20173;-81
2023/04/17 06:20:09;;;;;;;41.58;27.20;;;;;;;5.99;100.00;101945.22;4989335;28;20218;-77
2023/04/17 06:22:43;;;;;;;36.47;27.83;;;;;;;6.15;100.00;101945.41;4980607;28;20224;-78
2023/04/17 06:25:12;;;;;;;44.13;26.95;;;;;;;6.17;100.00;101948.81;4981217;28;20199;-77
2023/04/17 06:27:52;;;;;;;37.45;25.35;;;;;;;6.07;100.00;101950.69;4993022;28;20442;-79
2023/04/17 06:30:26;;;;;;;36.28;26.02;;;;;;;6.11;100.00;101957.44;4984810;28;20293;-78
2023/04/17 06:32:57;;;;;;;43.17;31.90;;;;;;;6.17;100.00;101954.19;4973965;28;20246;-78
2023/04/17 06:35:27;;;;;;;35.47;24.52;;;;;;;6.16;100.00;101957.84;4980014;28;20218;-77
2023/04/17 06:38:15;;;;;;;41.55;26.20;;;;;;;6.20;100.00;101955.72;4979811;28;20221;-78
2023/04/17 06:40:51;;;;;;;38.00;25.85;;;;;;;6.24;100.00;101960.69;4985708;28;20214;-79
2023/04/17 06:43:35;;;;;;;42.65;27.90;;;;;;;6.37;100.00;101961.16;4992534;28;20229;-79
2023/04/17 06:46:18;;;;;;;40.75;27.42;;;;;;;6.77;100.00;101957.28;4964917;28;20206;-78
2023/04/17 06:48:56;;;;;;;36.53;25.70;;;;;;;6.81;100.00;101953.28;4971986;28;20202;-80
2023/04/17 06:51:29;;;;;;;35.65;25.73;;;;;;;7.31;100.00;101959.81;4973177;28;20230;-79
2023/04/17 06:53:59;;;;;;;36.35;25.58;;;;;;;7.35;100.00;101966.59;4986066;28;20189;-80
2023/04/17 06:59:53;;;;;;;30.67;23.55;;;;;;;7.01;100.00;101962.91;4985203;28;20190;-80
2023/04/17 07:10:11;;;;;;;37.75;24.77;;;;;;;6.89;100.00;101978.41;4996178;28;20213;-79
2023/04/17 07:12:51;;;;;;;32.90;22.88;;;;;;;6.97;100.00;101978.50;4949615;28;20226;-79
2023/04/17 07:15:30;;;;;;;32.10;23.38;;;;;;;6.99;100.00;101983.72;4991918;28;20735;-77
2023/04/17 07:18:02;;;;;;;32.85;22.48;;;;;;;6.95;100.00;101985.03;4998745;28;20212;-76
2023/04/17 07:20:35;;;;;;;38.33;27.58;;;;;;;6.89;100.00;101985.63;4988032;28;20212;-77
2023/04/17 07:23:06;;;;;;;38.15;24.75;;;;;;;7.10;100.00;101988.06;4964353;28;20226;-77
2023/04/17 07:25:40;;;;;;;35.92;28.40;;;;;;;7.03;100.00;101997.72;4963574;28;20570;-78
2023/04/17 07:28:14;;;;;;;36.00;25.02;;;;;;;7.13;99.95;101985.88;4962572;28;20755;-78
2023/04/17 07:30:49;;;;;;;31.50;23.27;;;;;;;7.22;100.00;101987.66;4970691;28;20205;-79
2023/04/17 07:33:21;;;;;;;39.42;25.42;;;;;;;7.14;99.84;101995.66;4980312;28;20628;-79
2023/04/17 07:35:52;;;;;;;36.40;23.90;;;;;;;7.15;99.97;102001.91;4964241;28;20291;-81
2023/04/17 07:38:31;;;;;;;36.28;26.55;;;;;;;7.33;100.00;101994.66;4985413;28;20193;-81
2023/04/17 07:41:06;;;;;;;27.58;21.58;;;;;;;7.56;97.54;102005.78;4989691;28;20203;-79
2023/04/17 07:43:40;;;;;;;33.08;21.50;;;;;;;7.52;97.73;102009.81;4983854;28;20205;-80
2023/04/17 07:46:16;;;;;;;30.92;22.05;;;;;;;7.90;95.00;102006.75;4996110;28;20207;-81
2023/04/17 07:48:51;;;;;;;33.90;21.98;;;;;;;7.94;94.69;102018.06;4993097;28;20203;-80
2023/04/17 07:51:26;;;;;;;35.35;21.52;;;;;;;7.99;93.61;102011.19;4993358;28;20275;-81
2023/04/17 07:54:07;;;;;;;28.90;22.00;;;;;;;8.26;92.92;102012.88;4988115;28;20293;-80
2023/04/17 07:56:35;;;;;;;26.00;19.67;;;;;;;8.12;91.95;102017.00;4984492;28;20284;-79
2023/04/17 07:59:05;;;;;;;39.58;21.95;;;;;;;7.99;92.63;102019.25;4987631;28;20196;-79
2023/04/17 08:01:34;;;;;;;25.77;20.10;;;;;;;8.01;92.78;102016.41;4989723;28;20225;-77
2023/04/17 08:04:03;;;;;;;29.52;21.13;;;;;;;8.09;90.86;102019.16;4979944;28;20231;-77
2023/04/17 08:06:32;;;;;;;32.03;20.08;;;;;;;8.14;90.54;102017.69;4978912;28;20235;-79
2023/04/17 08:09:02;;;;;;;26.60;18.67;;;;;;;8.46;89.67;102016.22;4993830;28;20190;-79
2023/04/17 08:11:33;;;;;;;29.50;20.20;;;;;;;8.49;87.73;102019.44;4972744;29;20298;-81
2023/04/17 08:14:19;;;;;;;25.20;19.63;;;;;;;8.99;86.56;102013.22;4986113;28;20213;-79
2023/04/17 08:16:49;;;;;;;26.23;19.85;;;;;;;9.26;83.80;102018.31;4977566;28;20215;-81
2023/04/17 08:19:19;;;;;;;23.88;18.67;;;;;;;9.27;83.36;102027.28;4974806;29;20197;-79
2023/04/17 08:21:49;;;;;;;32.38;20.48;;;;;;;9.33;82.68;102027.47;4976887;28;20238;-78
2023/04/17 08:24:20;;;;;;;27.02;18.77;;;;;;;9.28;83.11;102034.38;4979265;28;20199;-78
2023/04/17 08:26:52;;;;;;;26.23;20.10;;;;;;;9.04;83.09;102033.31;4998635;28;20207;-78
2023/04/17 08:29:22;;;;;;;23.30;18.42;;;;;;;9.20;82.93;102037.06;4979854;28;20224;-78
2023/04/17 08:31:56;;;;;;;23.05;17.48;;;;;;;9.14;81.96;102043.97;4986082;28;20244;-77
2023/04/17 08:34:45;;;;;;;23.73;17.48;;;;;;;9.03;82.97;102053.22;4981149;28;20229;-79
2023/04/17 08:37:30;;;;;;;36.88;17.63;;;;;;;9.08;83.72;102045.47;4992915;28;20178;-79
2023/04/17 08:40:00;;;;;;;40.95;34.75;;;;;;;9.23;83.17;102051.09;4993005;28;20237;-81
2023/04/17 08:42:34;;;;;;;24.27;19.80;;;;;;;9.60;81.92;102050.63;4983559;28;20237;-80
2023/04/17 08:45:06;;;;;;;33.22;19.25;;;;;;;9.52;80.10;102053.31;4973364;28;20698;-80
2023/04/17 08:47:36;;;;;;;27.33;20.65;;;;;;;9.44;81.62;102056.03;4990290;28;20210;-81
2023/04/17 08:50:13;;;;;;;24.98;18.98;;;;;;;9.40;81.29;102054.66;4967771;28;20205;-78
2023/04/17 08:52:44;;;;;;;20.73;18.03;;;;;;;9.50;80.90;102052.63;4992343;28;20240;-78
2023/04/17 08:55:16;;;;;;;30.58;18.20;;;;;;;9.52;80.52;102053.31;4993980;28;20850;-78
2023/04/17 08:58:03;;;;;;;22.20;18.67;;;;;;;9.40;81.72;102054.66;4995955;28;20185;-81
2023/04/17 09:00:39;;;;;;;23.67;19.02;;;;;;;9.57;81.41;102053.69;4974912;28;20229;-79
2023/04/17 09:03:11;;;;;;;28.65;17.77;;;;;;;9.64;80.55;102049.28;4992571;28;20238;-76
2023/04/17 09:05:44;;;;;;;22.65;17.60;;;;;;;9.50;80.48;102049.94;4981430;28;20243;-78
2023/04/17 09:08:19;;;;;;;23.02;17.80;;;;;;;9.40;81.22;102054.66;4992320;28;20169;-79
2023/04/17 09:10:51;;;;;;;21.60;18.25;;;;;;;9.52;82.26;102058.72;4997210;28;20157;-79
2023/04/17 09:13:27;;;;;;;19.48;16.45;;;;;;;9.72;80.21;102057.41;4973253;28;20229;-78
2023/04/17 09:16:06;;;;;;;24.40;18.43;;;;;;;9.72;80.07;102060.09;4977778;28;20197;-78
2023/04/17 09:18:38;;;;;;;25.10;17.93;;;;;;;9.66;80.12;102059.94;4979592;28;20426;-78
2023/04/17 09:21:10;;;;;;;23.77;19.40;;;;;;;9.35;80.80;102062.41;4997187;28;20478;-78
2023/04/17 09:23:51;;;;;;;26.33;16.63;;;;;;;9.46;80.83;102070.19;4996901;28;20411;-78
2023/04/17 09:26:21;;;;;;;26.88;17.33;;;;;;;9.42;81.27;102063.44;4993729;28;20171;-78
2023/04/17 09:29:07;;;;;;;20.55;16.75;;;;;;;9.42;80.51;102060.75;4994489;28;20197;-76
2023/04/17 09:31:39;;;;;;;18.60;15.90;;;;;;;9.88;78.11;102070.06;4987153;28;20235;-78
2023/04/17 09:34:16;;;;;;;19.25;15.48;;;;;;;10.32;76.08;102059.72;4975312;28;20407;-78
2023/04/17 09:37:08;;;;;;;23.90;16.80;;;;;;;10.78;74.84;102069.75;4980375;28;20194;-80
2023/04/17 09:43:05;;;;;;;20.17;14.90;;;;;;;10.29;71.60;102058.22;4980239;28;20473;-78
2023/04/17 09:45:43;;;;;;;20.63;17.10;;;;;;;10.45;72.21;102062.78;4980557;28;20412;-79
2023/04/17 09:48:13;;;;;;;17.40;15.27;;;;;;;10.65;71.43;102064.03;4980305;28;20458;-78
2023/04/17 09:50:42;;;;;;;22.73;15.10;;;;;;;10.43;71.33;102057.53;4980481;28;20478;-78
2023/04/17 09:53:12;;;;;;;20.07;15.43;;;;;;;10.26;70.72;102060.44;4978977;28;20444;-78
2023/04/17 09:55:43;;;;;;;21.07;15.60;;;;;;;10.33;70.45;102061.44;4979902;28;20435;-79
2023/04/17 09:58:16;;;;;;;17.00;13.73;;;;;;;10.26;70.83;102063.97;4997361;28;20420;-76
2023/04/17 10:00:47;;;;;;;20.30;15.87;;;;;;;10.19;71.24;102075.66;4980352;28;20438;-79
2023/04/17 10:03:18;;;;;;;24.77;15.50;;;;;;;10.33;71.40;102059.56;5017808;23;20489;-79
2023/04/17 10:05:48;;;;;;;21.10;14.13;;;;;;;10.26;71.73;102066.66;4982099;28;20436;-79
2023/04/17 10:08:21;;;;;;;19.33;15.90;;;;;;;10.07;73.17;102066.19;4973601;28;20489;-78
2023/04/17 10:10:52;;;;;;;22.67;16.67;;;;;;;9.94;73.27;102075.66;4977005;28;20177;-79
2023/04/17 10:13:29;;;;;;;16.60;14.63;;;;;;;9.98;69.92;102071.56;4982302;28;20206;-79
2023/04/17 10:16:00;;;;;;;20.00;15.93;;;;;;;9.70;69.38;102066.69;4963678;28;20205;-80
2023/04/17 10:18:30;;;;;;;18.65;14.52;;;;;;;9.91;70.80;102062.47;4982223;28;20468;-79
2023/04/17 10:21:20;;;;;;;21.10;15.30;;;;;;;10.06;69.80;102069.91;4980642;28;20202;-82
2023/04/17 10:23:53;;;;;;;18.80;16.50;;;;;;;9.74;71.64;102066.19;4980915;28;20422;-80
2023/04/17 10:26:38;;;;;;;17.05;13.60;;;;;;;9.93;70.30;102071.25;4956751;29;20222;-80
2023/04/17 10:29:08;;;;;;;18.65;14.55;;;;;;;10.24;69.00;102065.16;4979780;28;20189;-81
2023/04/17 10:32:10;;;;;;;16.48;14.88;;;;;;;10.58;66.22;102067.63;4986843;28;20272;-82
2023/04/17 10:34:42;;;;;;;15.70;13.97;;;;;;;11.26;63.50;102062.41;4972356;28;20197;-80
2023/04/17 10:37:21;;;;;;;20.23;15.57;;;;;;;10.99;64.09;102060.22;4991314;28;20400;-81
2023/04/17 10:39:59;;;;;;;18.87;13.40;;;;;;;11.16;62.22;102049.09;4956321;28;20442;-82
2023/04/17 10:42:31;;;;;;;17.07;14.70;;;;;;;10.76;62.15;102057.41;4977156;28;20447;-80
2023/04/17 10:45:04;;;;;;;13.67;11.30;;;;;;;10.90;57.38;102051.25;4980370;28;20464;-81
2023/04/17 10:47:35;;;;;;;15.60;14.00;;;;;;;11.20;58.15;102041.44;4980221;28;20428;-81
2023/04/17 10:50:10;;;;;;;18.80;15.87;;;;;;;11.50;58.83;102048.72;4990479;28;20441;-80
2023/04/17 10:52:43;;;;;;;16.50;14.03;;;;;;;11.83;57.08;102053.91;4981758;28;20435;-81
2023/04/17 10:55:16;;;;;;;20.60;13.13;;;;;;;11.52;59.30;102043.94;4984343;28;20454;-82
2023/04/17 10:57:57;;;;;;;18.67;16.63;;;;;;;11.62;59.97;102046.41;4995726;28;20421;-80
2023/04/17 11:00:36;;;;;;;17.10;13.80;;;;;;;12.27;60.23;102045.88;4980890;28;20421;-81
2023/04/17 11:03:06;;;;;;;15.53;13.90;;;;;;;12.44;56.04;102041.97;4974782;28;20468;-81
2023/04/17 11:05:45;;;;;;;14.80;12.80;;;;;;;12.51;56.80;102049.16;4975542;28;20454;-82
2023/04/17 11:08:15;;;;;;;17.07;14.73;;;;;;;12.19;56.07;102039.50;4967924;28;21157;-84
2023/04/17 11:10:45;;;;;;;16.17;12.40;;;;;;;12.22;56.89;102043.72;4982128;28;20461;-83
2023/04/17 11:13:16;;;;;;;17.00;15.30;;;;;;;11.97;57.83;102036.81;4985138;28;20463;-82
2023/04/17 11:15:45;;;;;;;17.60;15.33;;;;;;;12.00;59.24;102050.88;4975923;28;20442;-82
2023/04/17 11:18:14;;;;;;;15.63;12.60;;;;;;;11.67;60.93;102050.25;4979809;28;20409;-83
2023/04/17 11:20:45;;;;;;;21.30;13.70;;;;;;;11.80;57.85;102054.28;4995670;28;20425;-79
2023/04/17 11:23:17;;;;;;;14.50;12.67;;;;;;;11.62;57.95;102052.66;4977502;28;20457;-82
2023/04/17 11:25:47;;;;;;;14.77;11.60;;;;;;;11.51;57.67;102050.41;4981653;28;20458;-83
2023/04/17 11:28:16;;;;;;;17.63;13.60;;;;;;;11.37;58.28;102056.59;4980501;28;20447;-81
2023/04/17 11:30:46;;;;;;;19.03;13.40;;;;;;;11.52;58.20;102051.25;4986348;28;20469;-81
2023/04/17 11:33:15;;;;;;;18.27;14.07;;;;;;;11.42;57.73;102051.50;4981501;28;20617;-79
2023/04/17 11:35:46;;;;;;;15.47;12.60;;;;;;;12.08;57.33;102055.38;4982427;28;20462;-80
2023/04/17 11:38:19;;;;;;;12.60;10.83;;;;;;;12.17;57.29;102051.56;4971595;28;20444;-79
2023/04/17 11:40:52;;;;;;;15.80;13.87;;;;;;;12.00;58.85;102061.75;4972244;28;20449;-80
2023/04/17 11:43:23;;;;;;;13.60;11.97;;;;;;;11.92;58.42;102053.66;4976484;28;20542;-81
2023/04/17 11:45:56;;;;;;;17.27;13.53;;;;;;;12.02;54.61;102061.53;4988701;28;20413;-79
2023/04/17 11:48:28;;;;;;;14.00;11.93;;;;;;;11.92;54.99;102052.81;4973746;28;20454;-79
2023/04/17 11:51:01;;;;;;;15.07;12.00;;;;;;;11.94;56.72;102067.03;4974728;28;20427;-80